createdAt,value
2023-01-13T00:00:22.252Z,96556.91
2023-01-13T00:04:22.480Z,96561.16
2023-01-13T00:08:25.180Z,96535.28
2023-01-13T00:12:25.485Z,96537.69
2023-01-13T00:16:25.746Z,96498.22
2023-01-13T00:20:26.014Z,96541.44
2023-01-13T00:24:29.073Z,96521.69
2023-01-13T00:28:29.657Z,96475.25
2023-01-13T00:32:31.190Z,96539.81
2023-01-13T00:36:33.317Z,96505.13
2023-01-13T00:40:36.172Z,96482.72
2023-01-13T00:44:36.447Z,96504.03
2023-01-13T00:48:38.098Z,96502.97
2023-01-13T00:52:39.561Z,96488.88
2023-01-13T00:56:43.352Z,96487.53
2023-01-13T01:00:43.838Z,96489.13
2023-01-13T01:04:44.056Z,96488.06
2023-01-13T01:08:45.988Z,96490.72
2023-01-13T01:12:48.965Z,96481.16
2023-01-13T01:16:49.149Z,96483.78
2023-01-13T01:20:49.347Z,96490.72
2023-01-13T01:24:51.149Z,96487.03
2023-01-13T01:28:54.798Z,96496.06
2023-01-13T01:32:55.456Z,96484.34
2023-01-13T01:36:55.694Z,96488.78
2023-01-13T01:40:55.880Z,96481.13
2023-01-13T01:45:05.529Z,96491.00
2023-01-13T01:49:15.582Z,96473.66
2023-01-13T01:53:23.653Z,96477.94
2023-01-13T01:57:32.898Z,96457.16
2023-01-13T02:01:37.126Z,96463.00
2023-01-13T02:05:39.076Z,96464.06
2023-01-13T02:09:40.156Z,96447.28
2023-01-13T02:13:40.493Z,96442.97
2023-01-13T02:18:05.912Z,96456.06
2023-01-13T02:22:47.857Z,96419.31
2023-01-13T02:27:34.508Z,96448.06
2023-01-13T02:31:43.056Z,96432.06
2023-01-13T02:35:53.560Z,96441.13
2023-01-13T02:40:01.482Z,96435.78
2023-01-13T02:44:07.151Z,96387.56
2023-01-13T02:48:14.175Z,96440.06
2023-01-13T02:52:22.334Z,96410.75
2023-01-13T02:56:26.091Z,96433.41
2023-01-13T03:00:27.529Z,96433.13
2023-01-13T03:04:55.105Z,96409.44
2023-01-13T03:09:06.317Z,96429.41
2023-01-13T03:13:23.924Z,96423.00
2023-01-13T03:17:34.417Z,96419.78
2023-01-13T03:21:51.271Z,96409.13
2023-01-13T03:25:59.081Z,96400.81
2023-01-13T03:30:05.225Z,96415.00
2023-01-13T03:34:12.603Z,96407.56
2023-01-13T03:38:21.301Z,96393.63
2023-01-13T03:42:26.500Z,96392.09
2023-01-13T03:46:49.760Z,96397.44
2023-01-13T03:50:55.260Z,96402.22
2023-01-13T03:55:04.798Z,96403.28
2023-01-13T03:59:08.211Z,96397.38
2023-01-13T04:03:14.623Z,96406.75
2023-01-13T04:07:26.588Z,96385.69
2023-01-13T04:11:38.089Z,96401.41
2023-01-13T04:15:42.855Z,96391.28
2023-01-13T04:19:43.068Z,96395.81
2023-01-13T04:23:43.091Z,96385.97
2023-01-13T04:27:45.717Z,96400.63
2023-01-13T04:31:45.915Z,96396.09
2023-01-13T04:35:48.538Z,96399.03
2023-01-13T04:39:49.254Z,96388.09
2023-01-13T04:43:51.924Z,96390.47
2023-01-13T04:47:52.011Z,96394.75
2023-01-13T04:51:52.150Z,96392.06
2023-01-13T04:55:52.456Z,96380.84
2023-01-13T04:59:55.270Z,96381.66
2023-01-13T05:03:55.369Z,96392.88
2023-01-13T05:07:55.810Z,96398.47
2023-01-13T05:12:08.362Z,96391.53
2023-01-13T05:16:26.113Z,96391.03
2023-01-13T05:20:27.001Z,96385.94
2023-01-13T05:24:39.572Z,96402.75
2023-01-13T05:28:39.829Z,96384.63
2023-01-13T05:32:42.813Z,96401.16
2023-01-13T05:36:42.863Z,96381.41
2023-01-13T05:40:57.759Z,96339.03
2023-01-13T05:44:58.675Z,96384.63
2023-01-13T05:49:01.891Z,96379.00
2023-01-13T05:53:01.922Z,96369.72
2023-01-13T05:57:02.046Z,96360.38
2023-01-13T06:01:08.665Z,96379.78
2023-01-13T06:05:12.173Z,96392.06
2023-01-13T06:09:12.241Z,96380.91
2023-01-13T06:13:12.383Z,96387.28
2023-01-13T06:17:15.637Z,96386.75
2023-01-13T06:21:18.360Z,96390.41
2023-01-13T06:25:29.308Z,96386.72
2023-01-13T06:29:29.379Z,96351.28
2023-01-13T06:33:35.843Z,96379.78
2023-01-13T06:37:40.534Z,96378.19
2023-01-13T06:41:53.425Z,96355.75
2023-01-13T06:45:57.116Z,96394.19
2023-01-13T06:49:57.419Z,96368.66
2023-01-13T06:54:00.133Z,96355.81
2023-01-13T06:58:01.339Z,96382.47
2023-01-13T07:02:01.413Z,96391.47
2023-01-13T07:06:02.302Z,96361.31
2023-01-13T07:10:05.124Z,96370.75
2023-01-13T07:14:17.922Z,96373.41
2023-01-13T07:18:18.044Z,96376.09
2023-01-13T07:22:18.179Z,96372.38
2023-01-13T07:26:20.848Z,96376.63
2023-01-13T07:30:21.889Z,96370.78
2023-01-13T07:34:21.929Z,96380.38
2023-01-13T07:38:21.963Z,96352.63
2023-01-13T07:42:37.182Z,96382.97
2023-01-13T07:46:37.286Z,96385.91
2023-01-13T07:50:37.460Z,96377.63
2023-01-13T07:54:40.936Z,96393.34
2023-01-13T07:58:44.976Z,96395.25
2023-01-13T08:02:45.135Z,96369.69
2023-01-13T08:06:45.298Z,96383.47
2023-01-13T08:10:45.476Z,96387.19
2023-01-13T08:14:50.212Z,96384.53
2023-01-13T08:18:50.308Z,96353.16
2023-01-13T08:22:50.509Z,96395.75
2023-01-13T08:26:50.663Z,96380.81
2023-01-13T08:30:54.302Z,96389.91
2023-01-13T08:34:54.539Z,96399.44
2023-01-13T08:38:54.714Z,96390.34
2023-01-13T08:42:55.545Z,96384.19
2023-01-13T08:46:59.424Z,96389.78
2023-01-13T08:51:06.283Z,96386.72
2023-01-13T08:55:07.113Z,96375.16
2023-01-13T08:59:10.005Z,96380.66
2023-01-13T09:03:12.819Z,96379.09
2023-01-13T09:07:13.360Z,96373.41
2023-01-13T09:11:34.606Z,96388.66
2023-01-13T09:15:34.871Z,96385.84
2023-01-13T09:19:37.760Z,96390.34
2023-01-13T09:23:37.994Z,96392.53
2023-01-13T09:27:38.454Z,96388.50
2023-01-13T09:31:38.667Z,96390.28
2023-01-13T09:35:42.242Z,96391.19
2023-01-13T09:39:42.374Z,96393.88
2023-01-13T09:43:58.442Z,96371.28
2023-01-13T09:48:05.849Z,96379.53
2023-01-13T09:52:16.550Z,96367.34
2023-01-13T09:56:17.187Z,96318.75
2023-01-13T10:00:27.541Z,96359.06
2023-01-13T10:04:29.716Z,96372.47
2023-01-13T10:08:37.724Z,96388.59
2023-01-13T10:12:51.158Z,96344.81
2023-01-13T10:17:03.621Z,96380.78
2023-01-13T10:21:22.290Z,96383.75
2023-01-13T10:25:52.099Z,96368.75
2023-01-13T10:29:52.638Z,96397.63
2023-01-13T10:34:01.673Z,96408.44
2023-01-13T10:38:02.112Z,96423.72
2023-01-13T10:42:15.876Z,96431.94
2023-01-13T10:46:19.373Z,96430.47
2023-01-13T10:50:29.839Z,96455.00
2023-01-13T10:54:31.453Z,96397.44
2023-01-13T10:58:34.331Z,96474.59
2023-01-13T11:02:37.569Z,96487.28
2023-01-13T11:06:38.163Z,96478.88
2023-01-13T11:10:49.708Z,96463.28
2023-01-13T11:14:54.206Z,96480.25
2023-01-13T11:19:12.202Z,96459.94
2023-01-13T11:23:25.427Z,96493.94
2023-01-13T11:27:41.208Z,96485.47
2023-01-13T11:31:53.038Z,96467.53
2023-01-13T11:36:08.236Z,96459.19
2023-01-13T11:40:17.751Z,96437.56
2023-01-13T11:44:25.112Z,96389.72
2023-01-13T11:48:31.855Z,96379.72
2023-01-13T11:52:57.126Z,96448.06
2023-01-13T11:57:47.968Z,96443.28
2023-01-13T12:02:17.040Z,96447.00
2023-01-13T12:06:33.163Z,96442.22
2023-01-13T12:10:54.164Z,96434.22
2023-01-13T12:15:38.489Z,96411.22
2023-01-13T12:19:39.149Z,96446.13
2023-01-13T12:23:49.819Z,96438.69
2023-01-13T12:27:58.944Z,96449.31
2023-01-13T12:32:00.632Z,96458.31
2023-01-13T12:36:11.756Z,96468.72
2023-01-13T12:40:38.691Z,96442.25
2023-01-13T12:44:38.956Z,96467.19
2023-01-13T12:49:05.284Z,96470.22
2023-01-13T12:53:39.294Z,96426.94
2023-01-13T12:57:42.442Z,96459.78
2023-01-13T13:01:42.686Z,96464.00
2023-01-13T13:05:57.448Z,96460.88
2023-01-13T13:10:05.212Z,96436.06
2023-01-13T13:14:14.723Z,96464.53
2023-01-13T13:18:31.291Z,96456.78
2023-01-13T13:22:53.942Z,96462.88
2023-01-13T13:26:54.372Z,96449.34
2023-01-13T13:31:23.886Z,96451.97
2023-01-13T13:35:58.819Z,96454.16
2023-01-13T13:40:12.056Z,96475.81
2023-01-13T13:44:32.586Z,96483.28
2023-01-13T13:48:35.290Z,96481.16
2023-01-13T13:52:43.003Z,96427.53
2023-01-13T13:56:47.910Z,96495.44
2023-01-13T14:00:51.396Z,96478.19
2023-01-13T14:05:10.163Z,96493.56
2023-01-13T14:09:20.311Z,96497.00
2023-01-13T14:13:25.751Z,96499.28
2023-01-13T14:17:29.554Z,96495.25
2023-01-13T14:21:33.648Z,96508.34
2023-01-13T14:25:39.536Z,96515.69
2023-01-13T14:29:40.626Z,96533.34
2023-01-13T14:33:46.235Z,96527.28
2023-01-13T14:37:54.377Z,96542.03
2023-01-13T14:41:54.764Z,96550.00
2023-01-13T14:46:02.726Z,96542.72
2023-01-13T14:50:08.641Z,96538.47
2023-01-13T14:54:49.213Z,96546.94
2023-01-13T14:58:49.967Z,96547.56
2023-01-13T15:02:53.670Z,96553.84
2023-01-13T15:06:57.811Z,96538.41
2023-01-13T15:11:02.863Z,96559.19
2023-01-13T15:15:03.233Z,96554.47
2023-01-13T15:19:03.449Z,96587.84
2023-01-13T15:23:04.339Z,96580.72
2023-01-13T15:27:20.370Z,96548.28
2023-01-13T15:31:21.151Z,96578.50
2023-01-13T15:35:22.863Z,96605.19
2023-01-13T15:39:23.184Z,96612.56
2023-01-13T15:43:39.546Z,96617.97
2023-01-13T15:47:39.736Z,96625.59
2023-01-13T15:51:40.242Z,96623.66
2023-01-13T15:55:42.158Z,96658.09
2023-01-13T15:59:44.809Z,96653.75
2023-01-13T16:03:44.895Z,96621.47
2023-01-13T16:07:45.343Z,96668.38
2023-01-13T16:11:45.768Z,96668.00
2023-01-13T16:15:52.537Z,96692.13
2023-01-13T16:19:53.628Z,96672.75
2023-01-13T16:23:55.285Z,96692.66
2023-01-13T16:27:56.010Z,96719.91
2023-01-13T16:31:58.714Z,96739.03
2023-01-13T16:36:10.661Z,96738.28
2023-01-13T16:40:26.307Z,96742.16
2023-01-13T16:44:26.394Z,96751.13
2023-01-13T16:48:29.338Z,96763.25
2023-01-13T16:52:29.405Z,96751.13
2023-01-13T16:56:33.050Z,96764.06
2023-01-13T17:00:34.073Z,96767.59
2023-01-13T17:04:36.803Z,96777.69
2023-01-13T17:08:36.900Z,96768.69
2023-01-13T17:12:37.154Z,96772.19
2023-01-13T17:16:37.375Z,96782.16
2023-01-13T17:20:40.022Z,96779.72
2023-01-13T17:24:40.142Z,96764.59
2023-01-13T17:28:40.213Z,96800.81
2023-01-13T17:32:40.449Z,96778.34
2023-01-13T17:36:43.654Z,96785.41
2023-01-13T17:40:43.708Z,96793.22
2023-01-13T17:44:43.924Z,96821.47
2023-01-13T17:48:44.070Z,96793.97
2023-01-13T17:52:46.710Z,96814.50
2023-01-13T17:56:47.789Z,96817.13
2023-01-13T18:00:48.475Z,96835.56
2023-01-13T18:04:48.527Z,96822.75
2023-01-13T18:08:51.829Z,96838.69
2023-01-13T18:12:51.954Z,96821.00
2023-01-13T18:16:52.425Z,96783.66
2023-01-13T18:21:05.161Z,96822.88
2023-01-13T18:25:27.189Z,96814.94
2023-01-13T18:29:27.302Z,96830.22
2023-01-13T18:33:27.661Z,96809.72
2023-01-13T18:37:28.861Z,96835.22
2023-01-13T18:41:56.152Z,96832.41
2023-01-13T18:45:59.205Z,96835.06
2023-01-13T18:50:00.751Z,96835.88
2023-01-13T18:54:01.451Z,96845.38
2023-01-13T18:58:04.880Z,96829.28
2023-01-13T19:02:09.464Z,96815.13
2023-01-13T19:06:14.262Z,96852.94
2023-01-13T19:10:16.253Z,96842.53
2023-01-13T19:14:34.168Z,96865.38
2023-01-13T19:18:34.456Z,96854.72
2023-01-13T19:22:37.297Z,96865.19
2023-01-13T19:26:37.564Z,96874.19
2023-01-13T19:30:40.295Z,96860.03
2023-01-13T19:34:40.937Z,96862.44
2023-01-13T19:38:41.399Z,96831.84
2023-01-13T19:42:53.934Z,96857.75
2023-01-13T19:46:56.619Z,96875.16
2023-01-13T19:50:56.709Z,96879.50
2023-01-13T19:54:57.353Z,96899.94
2023-01-13T19:58:57.420Z,96904.94
2023-01-13T20:03:03.605Z,96888.28
2023-01-13T20:07:03.671Z,96900.75
2023-01-13T20:11:16.447Z,96915.97
2023-01-13T20:15:17.446Z,96896.59
2023-01-13T20:19:20.199Z,96905.09
2023-01-13T20:23:20.236Z,96932.78
2023-01-13T20:27:20.295Z,96942.81
2023-01-13T20:31:20.413Z,96950.66
2023-01-13T20:35:24.412Z,96941.19
2023-01-13T20:39:27.684Z,96948.50
2023-01-13T20:43:27.869Z,96959.22
2023-01-13T20:47:28.530Z,96961.31
2023-01-13T20:51:31.206Z,96968.47
2023-01-13T20:55:33.728Z,96966.13
2023-01-13T20:59:33.933Z,96970.19
2023-01-13T21:03:34.072Z,96991.28
2023-01-13T21:07:37.840Z,96984.84
2023-01-13T21:11:51.465Z,96955.03
2023-01-13T21:15:52.614Z,96982.09
2023-01-13T21:19:53.358Z,96987.84
2023-01-13T21:23:56.267Z,96989.00
2023-01-13T21:27:59.510Z,96987.94
2023-01-13T21:32:00.305Z,96990.63
2023-01-13T21:36:06.277Z,96992.09
2023-01-13T21:40:13.126Z,97007.38
2023-01-13T21:44:31.015Z,97000.00
2023-01-13T21:48:31.267Z,97002.41
2023-01-13T21:52:31.465Z,97008.66
2023-01-13T21:56:34.293Z,96992.25
2023-01-13T22:00:35.515Z,97024.63
2023-01-13T22:04:36.136Z,96990.06
2023-01-13T22:08:38.699Z,96980.94
2023-01-13T22:12:41.486Z,97016.56
2023-01-13T22:16:49.583Z,97036.44
2023-01-13T22:20:49.918Z,97042.63
2023-01-13T22:24:52.641Z,97048.94
2023-01-13T22:28:55.523Z,97033.06
2023-01-13T22:32:56.297Z,97041.91
2023-01-13T22:36:56.663Z,97064.22
2023-01-13T22:41:00.845Z,97067.78
2023-01-13T22:45:03.780Z,97060.97
2023-01-13T22:49:03.837Z,97066.09
2023-01-13T22:53:03.850Z,97058.69
2023-01-13T22:57:03.848Z,97066.53
2023-01-13T23:01:19.249Z,97052.94
2023-01-13T23:05:19.781Z,97059.09
2023-01-13T23:09:19.885Z,97052.78
2023-01-13T23:13:19.986Z,97069.28
2023-01-13T23:17:22.691Z,97082.00
2023-01-13T23:21:26.081Z,97089.22
2023-01-13T23:25:26.141Z,97081.06
2023-01-13T23:29:26.341Z,97078.66
2023-01-13T23:33:29.213Z,97083.19
2023-01-13T23:37:29.390Z,97106.03
2023-01-13T23:41:30.979Z,97108.97
2023-01-13T23:45:31.011Z,97114.75
2023-01-13T23:49:33.800Z,97108.75
2023-01-13T23:53:35.470Z,97114.66
2023-01-13T23:57:35.495Z,97129.56
